This is the latest recevied weather packets stored in our database for station/object W7BL. If no packets are shown the sender has not sent any weather packets the latest 10 day(s).
| Time | Temp. | Humidity | Pressure | Rain* | Wind** | Luminosity | Snow |
|---|---|---|---|---|---|---|---|
| 1778235545 | 6.11° C | 64% | - | 0 mm | - | - | - |
| 1778235242 | 6.11° C | 65% | - | 0 mm | - | - | - |
| 1778234939 | 6.67° C | 63% | - | 0 mm | - | - | - |
| 1778234639 | 6.67° C | 62% | - | 0 mm | - | - | - |
| 1778234333 | 6.67° C | 64% | - | 0 mm | - | - | - |
| 1778234032 | 6.67° C | 65% | - | 0 mm | - | - | - |
| 1778233728 | 6.67° C | 64% | - | 0 mm | - | - | - |
| 1778233425 | 6.67° C | 63% | - | 0 mm | - | - | - |
| 1778233122 | 6.67° C | 64% | - | 0 mm | - | - | - |
| 1778232819 | 6.67° C | 66% | - | 0 mm | - | - | - |
| 1778232517 | 6.67° C | 66% | - | 0 mm | - | - | - |
| 1778232215 | 6.67° C | 65% | - | 0 mm | - | - | - |
| 1778231913 | 6.67° C | 64% | - | 0 mm | - | - | - |
| 1778231609 | 6.67° C | 65% | - | 0 mm | - | - | - |
| 1778231307 | 6.67° C | 66% | - | 0 mm | - | - | - |
| 1778231006 | 6.67° C | 64% | - | 0 mm | - | - | - |
| 1778230700 | 7.22° C | 63% | - | 0 mm | - | - | - |
| 1778230398 | 7.22° C | 62% | - | 0 mm | - | - | - |
| 1778230094 | 7.22° C | 61% | - | 0 mm | - | - | - |
| 1778229791 | 7.78° C | 60% | - | 0 mm | - | - | - |
| 1778229488 | 7.22° C | 62% | - | 0 mm | - | - | - |
| 1778229186 | 7.78° C | 60% | - | 0 mm | - | - | - |
| 1778228885 | 8.33° C | 57% | - | 0 mm | - | - | - |
| 1778228583 | 7.78° C | 61% | - | 0 mm | - | - | - |
| 1778228281 | 7.78° C | 60% | - | 0 mm | - | - | - |
* Rain latest hour (hover to see other rain measurements)
** Current wind speed in m/s (hover to see current wind gust speed)